KOQT  Oak Ridge  Airport

Tennessee, United States

Add Bookmark
Status
Operational
Latitude Longitude
36° 1' 12" N 84° 13' 48" W
36.020000 -84.230000
Local (DST -4) UTC (GMT -5)
Mar 29, 2015 06:33 Mar 29, 2015 10:33
Sunrise-Sunset Local UTC
Begin Civil Twilight 06:59 10:59
Sunrise 07:25 11:25
Sunset 07:57 23:57
End Civil Twilight 08:23 00:23

Current Weather

METAR Observed VFR
KOQT 290953Z AUTO 00000KT 10SM CLR M03/M07 A3037 Sun, Mar 29, 2015 @ 09:53 UTC
(40 Minutes ago)
Visual Flight Rules
Wind Visibility Clouds Conditions
Calm 10 statute miles
  • Clear skies
  • No significant weather
Temperatures Readings Precipitation
Current Temp -3°C (27°F)
Dewpoint -7°C (19°F)
Humidity 74%
Altimeter 30.37"Hg
Sea Level Pressure 1029.7mb
Field Elevation 908.79'
None Recorded

Additional weather within a 50nm radius of KOQT

Map ICAO Location
KTYS 17nm S (137°)
KGKT 35.4nm E (106°)
KMMI 40.6nm S (204°)
KCSV 41.7nm W (265°)
KMOR 42.5nm E (077°)
1A6 42.7nm N (034°)

24 Hour Weather History

Loading
-

24 Hour Weather Graphs

Loading
-

CheckWX.com is intended as a tool to help pilots better visualize weather data. It is not intended as a substitute for an official weather briefing obtained from a Flight Service Station. CheckWX.com does not meet the FAA requirements for an official pre-flight weather briefing. Therefore, it's important that pilots still call and obtain an official FSS pre-flight weather briefing.